Airfield :
LOGIN :

Register | Disclaimer

   EN    FR    IT 

 










Legend :    VFR   Marginal VFR   IFR   Intensive IFR   Very Intensive IFR
Visi :
Ceiling :
>= 8 km
>= 3000ft
5 to 8 km
1000 to 3000 ft
1500m to 5 km
500 to 1000 ft
800 to 1500m
200 to 500 ft
< 800m
< 200 ft
Symbols :   Thunderstorms  Fog  Heavy snow  Heavy precipitations  Wind > 20 kt
SIGMETs :     Misc.  Thunderstorms  Icing  Turbulence  Mountain Waves  Volcanic Ashes







- Airport Elevation : 238 ft
- IATA code : FAB
- Download approach charts


EGLF - Farnborough

CURRENT METAR :
  • 231350Z 22016KT 9999 VCSH BKN012 12/12 Q1014

EXPIRED METARs :
  • 231320Z 22018KT 9999 VCSH BKN010 12/12 Q1014
  • 231250Z 22016G26KT 4000 -DZ BKN007 12/12 Q1014
  • 231220Z 22017KT 9999 BKN008 11/11 Q1014
  • 231150Z 22016KT 9000 VCSH BKN008 12/12 Q1014
  • 231120Z 22015KT 9000 BKN007 11/11 Q1015

TAF TAF EGLF
Valid from the 23 at 12:00 until the 23 at 21:00 UTC


231100Z 2312/2321 21017G27KT 3000 BR BKN003
BECMG 2312/2314 21014KT 9999 NSW SCT010
TEMPO 2314/2321 8000 -RA BKN010
PROB30
TEMPO 2314/2321 RA BKN007
ATIS : +44 09063 800 400 (*282)
No reported NOTAMs for that airfield.
1 SIGMET reported for the London FIR (EGTT) :
 
Severe mountain waves
EGTT SIGMET 01 VALID 231130/231530 EGRR
EGTT LONDON FIR SEV MTW FCST WI N4914 W00600 - N5500 W00455 - N5500 E00030 - N4950 W00240 - N4914 W00600 SFC/FL150 STNR NC=



MET'MAP, your aeronautical weather chart ! - Copyright ORBIFLY December 2007 - Disclaimer

ORBIFLY MET'MAP TEAM :

Programming & Development : Alexandra Zaïnal
Concept & Development : Baudouin d'Aumeries
Co-Development & Prog : Marc-Olivier Méhu
Technical & hardware support : Manuel Goepfert

Contact : metmap@orbifly.com




SOURCES & CREDITS :

   NOAA